sensor_id;sensor_type;location;lat;lon;timestamp;P1;durP1;ratioP1;P2;durP2;ratioP2
52396;SDS011;38322;53.108;6.308;2022-11-14T06:01:43;54.47;;;36.95;;
52396;SDS011;38322;53.108;6.308;2022-11-14T06:04:09;60.47;;;39.15;;
52396;SDS011;38322;53.108;6.308;2022-11-14T06:06:37;59.75;;;37.88;;
52396;SDS011;38322;53.108;6.308;2022-11-14T06:09:03;56.95;;;35.42;;
52396;SDS011;38322;53.108;6.308;2022-11-14T06:11:29;57.85;;;37.38;;
52396;SDS011;38322;53.108;6.308;2022-11-14T06:13:55;61.75;;;34.65;;
52396;SDS011;38322;53.108;6.308;2022-11-14T06:16:20;56.88;;;36.83;;
52396;SDS011;38322;53.108;6.308;2022-11-14T06:18:46;51.92;;;34.70;;
52396;SDS011;38322;53.108;6.308;2022-11-14T06:21:13;59.75;;;37.55;;
52396;SDS011;38322;53.108;6.308;2022-11-14T06:23:40;60.80;;;38.28;;
52396;SDS011;38322;53.108;6.308;2022-11-14T06:26:09;54.58;;;35.55;;
52396;SDS011;38322;53.108;6.308;2022-11-14T06:28:40;55.83;;;35.28;;
52396;SDS011;38322;53.108;6.308;2022-11-14T06:31:06;55.53;;;36.45;;
52396;SDS011;38322;53.108;6.308;2022-11-14T06:33:33;52.45;;;35.47;;
52396;SDS011;38322;53.108;6.308;2022-11-14T06:36:00;55.22;;;35.60;;
52396;SDS011;38322;53.108;6.308;2022-11-14T06:38:30;56.55;;;37.40;;
52396;SDS011;38322;53.108;6.308;2022-11-14T06:41:00;61.90;;;37.72;;
52396;SDS011;38322;53.108;6.308;2022-11-14T06:43:27;58.90;;;39.63;;
52396;SDS011;38322;53.108;6.308;2022-11-14T06:45:53;59.65;;;36.72;;
52396;SDS011;38322;53.108;6.308;2022-11-14T06:48:20;58.13;;;38.08;;
52396;SDS011;38322;53.108;6.308;2022-11-14T06:50:53;61.90;;;40.17;;
52396;SDS011;38322;53.108;6.308;2022-11-14T06:53:21;59.95;;;38.40;;
52396;SDS011;38322;53.108;6.308;2022-11-14T06:56:00;53.08;;;35.88;;
52396;SDS011;38322;53.108;6.308;2022-11-14T06:58:28;59.47;;;36.55;;
52396;SDS011;38322;53.108;6.308;2022-11-14T07:00:55;65.18;;;38.47;;
52396;SDS011;38322;53.108;6.308;2022-11-14T07:03:21;57.22;;;37.53;;
52396;SDS011;38322;53.108;6.308;2022-11-14T07:05:47;58.50;;;37.53;;
52396;SDS011;38322;53.108;6.308;2022-11-14T07:08:13;61.53;;;37.88;;
52396;SDS011;38322;53.108;6.308;2022-11-14T07:10:39;57.38;;;35.97;;
52396;SDS011;38322;53.108;6.308;2022-11-14T07:13:05;59.40;;;37.50;;
52396;SDS011;38322;53.108;6.308;2022-11-14T07:15:33;62.55;;;37.20;;
52396;SDS011;38322;53.108;6.308;2022-11-14T07:17:59;55.28;;;35.50;;
52396;SDS011;38322;53.108;6.308;2022-11-14T07:20:25;61.85;;;38.38;;
52396;SDS011;38322;53.108;6.308;2022-11-14T07:22:51;55.40;;;35.67;;
52396;SDS011;38322;53.108;6.308;2022-11-14T07:25:16;63.33;;;39.45;;
52396;SDS011;38322;53.108;6.308;2022-11-14T07:27:42;56.33;;;34.85;;
52396;SDS011;38322;53.108;6.308;2022-11-14T07:30:08;58.63;;;36.45;;
52396;SDS011;38322;53.108;6.308;2022-11-14T07:32:34;54.92;;;35.50;;
52396;SDS011;38322;53.108;6.308;2022-11-14T07:35:00;59.22;;;36.50;;
52396;SDS011;38322;53.108;6.308;2022-11-14T07:37:26;62.25;;;37.17;;
52396;SDS011;38322;53.108;6.308;2022-11-14T07:39:52;63.80;;;38.08;;
52396;SDS011;38322;53.108;6.308;2022-11-14T07:42:17;58.42;;;34.83;;
52396;SDS011;38322;53.108;6.308;2022-11-14T07:44:43;62.45;;;35.45;;
52396;SDS011;38322;53.108;6.308;2022-11-14T07:47:09;52.55;;;34.15;;
52396;SDS011;38322;53.108;6.308;2022-11-14T07:49:35;59.00;;;34.92;;
52396;SDS011;38322;53.108;6.308;2022-11-14T07:52:00;58.75;;;36.15;;
52396;SDS011;38322;53.108;6.308;2022-11-14T07:54:26;61.05;;;35.47;;
52396;SDS011;38322;53.108;6.308;2022-11-14T07:56:52;60.30;;;36.70;;
52396;SDS011;38322;53.108;6.308;2022-11-14T07:59:18;60.47;;;35.78;;
52396;SDS011;38322;53.108;6.308;2022-11-14T08:01:44;57.17;;;36.33;;
52396;SDS011;38322;53.108;6.308;2022-11-14T08:04:09;64.70;;;36.35;;
52396;SDS011;38322;53.108;6.308;2022-11-14T08:06:35;62.17;;;34.90;;
52396;SDS011;38322;53.108;6.308;2022-11-14T08:09:01;54.20;;;32.67;;
52396;SDS011;38322;53.108;6.308;2022-11-14T08:11:27;59.08;;;35.05;;
52396;SDS011;38322;53.108;6.308;2022-11-14T08:14:11;60.72;;;35.58;;
52396;SDS011;38322;53.108;6.308;2022-11-14T08:16:37;58.47;;;35.78;;
52396;SDS011;38322;53.108;6.308;2022-11-14T08:19:03;56.80;;;33.63;;
52396;SDS011;38322;53.108;6.308;2022-11-14T08:21:29;57.47;;;32.70;;
52396;SDS011;38322;53.108;6.308;2022-11-14T08:23:55;64.95;;;37.50;;
52396;SDS011;38322;53.108;6.308;2022-11-14T08:26:21;70.10;;;40.00;;
52396;SDS011;38322;53.108;6.308;2022-11-14T08:28:50;62.97;;;37.28;;
52396;SDS011;38322;53.108;6.308;2022-11-14T08:31:18;59.38;;;38.28;;
52396;SDS011;38322;53.108;6.308;2022-11-14T08:33:44;64.10;;;39.30;;
52396;SDS011;38322;53.108;6.308;2022-11-14T08:36:10;65.47;;;39.75;;
52396;SDS011;38322;53.108;6.308;2022-11-14T08:38:36;59.78;;;36.35;;
52396;SDS011;38322;53.108;6.308;2022-11-14T08:41:02;66.00;;;39.90;;
52396;SDS011;38322;53.108;6.308;2022-11-14T08:43:29;64.85;;;39.80;;
52396;SDS011;38322;53.108;6.308;2022-11-14T08:45:57;65.80;;;38.97;;
52396;SDS011;38322;53.108;6.308;2022-11-14T08:48:24;62.85;;;37.53;;
52396;SDS011;38322;53.108;6.308;2022-11-14T08:50:50;66.00;;;37.45;;
52396;SDS011;38322;53.108;6.308;2022-11-14T08:53:15;58.75;;;37.75;;
52396;SDS011;38322;53.108;6.308;2022-11-14T08:55:45;67.45;;;40.08;;
52396;SDS011;38322;53.108;6.308;2022-11-14T08:58:11;62.67;;;36.78;;
52396;SDS011;38322;53.108;6.308;2022-11-14T09:00:37;62.17;;;38.25;;
52396;SDS011;38322;53.108;6.308;2022-11-14T09:03:09;60.45;;;39.30;;
52396;SDS011;38322;53.108;6.308;2022-11-14T09:05:38;58.17;;;36.38;;
52396;SDS011;38322;53.108;6.308;2022-11-14T09:08:04;63.22;;;36.63;;
52396;SDS011;38322;53.108;6.308;2022-11-14T09:10:30;58.70;;;34.72;;
52396;SDS011;38322;53.108;6.308;2022-11-14T09:12:56;59.38;;;34.25;;
52396;SDS011;38322;53.108;6.308;2022-11-14T09:15:23;53.25;;;33.88;;
52396;SDS011;38322;53.108;6.308;2022-11-14T09:17:52;58.70;;;36.20;;
52396;SDS011;38322;53.108;6.308;2022-11-14T09:20:18;54.58;;;34.35;;
52396;SDS011;38322;53.108;6.308;2022-11-14T09:22:45;50.95;;;30.83;;
52396;SDS011;38322;53.108;6.308;2022-11-14T09:25:11;52.25;;;32.97;;
52396;SDS011;38322;53.108;6.308;2022-11-14T09:27:37;59.90;;;35.90;;
52396;SDS011;38322;53.108;6.308;2022-11-14T09:30:03;60.38;;;34.75;;
52396;SDS011;38322;53.108;6.308;2022-11-14T09:32:30;59.72;;;35.17;;
52396;SDS011;38322;53.108;6.308;2022-11-14T09:34:55;64.05;;;37.63;;
52396;SDS011;38322;53.108;6.308;2022-11-14T09:37:21;60.47;;;35.05;;
52396;SDS011;38322;53.108;6.308;2022-11-14T09:39:47;53.60;;;33.38;;
52396;SDS011;38322;53.108;6.308;2022-11-14T09:42:15;53.10;;;33.55;;
52396;SDS011;38322;53.108;6.308;2022-11-14T09:44:56;53.53;;;35.28;;
52396;SDS011;38322;53.108;6.308;2022-11-14T09:47:27;58.00;;;33.45;;
52396;SDS011;38322;53.108;6.308;2022-11-14T09:50:03;53.50;;;32.73;;
52396;SDS011;38322;53.108;6.308;2022-11-14T09:52:37;52.88;;;31.48;;
52396;SDS011;38322;53.108;6.308;2022-11-14T09:55:13;48.85;;;30.60;;
52396;SDS011;38322;53.108;6.308;2022-11-14T09:57:42;48.78;;;30.38;;
52396;SDS011;38322;53.108;6.308;2022-11-14T10:00:16;54.67;;;34.67;;
52396;SDS011;38322;53.108;6.308;2022-11-14T10:03:00;55.90;;;33.03;;
52396;SDS011;38322;53.108;6.308;2022-11-14T10:05:48;56.00;;;35.67;;
52396;SDS011;38322;53.108;6.308;2022-11-14T10:17:03;53.20;;;29.23;;
52396;SDS011;38322;53.108;6.308;2022-11-14T10:19:46;49.58;;;31.52;;
52396;SDS011;38322;53.108;6.308;2022-11-14T10:22:20;46.22;;;31.85;;
52396;SDS011;38322;53.108;6.308;2022-11-14T10:25:20;51.72;;;33.00;;
52396;SDS011;38322;53.108;6.308;2022-11-14T10:28:16;46.75;;;30.75;;
52396;SDS011;38322;53.108;6.308;2022-11-14T10:31:09;45.63;;;31.13;;
52396;SDS011;38322;53.108;6.308;2022-11-14T10:33:57;48.58;;;29.98;;
52396;SDS011;38322;53.108;6.308;2022-11-14T10:36:54;50.40;;;30.02;;
52396;SDS011;38322;53.108;6.308;2022-11-14T10:39:40;55.13;;;32.70;;
52396;SDS011;38322;53.108;6.308;2022-11-14T10:42:13;47.90;;;30.80;;
52396;SDS011;38322;53.108;6.308;2022-11-14T10:44:47;53.60;;;34.97;;
52396;SDS011;38322;53.108;6.308;2022-11-14T10:47:19;49.67;;;32.92;;
52396;SDS011;38322;53.108;6.308;2022-11-14T10:49:47;51.85;;;30.95;;
52396;SDS011;38322;53.108;6.308;2022-11-14T10:52:19;49.63;;;29.77;;
52396;SDS011;38322;53.108;6.308;2022-11-14T10:54:52;49.88;;;31.67;;
52396;SDS011;38322;53.108;6.308;2022-11-14T10:57:24;44.42;;;29.38;;
52396;SDS011;38322;53.108;6.308;2022-11-14T10:59:52;46.10;;;28.27;;
52396;SDS011;38322;53.108;6.308;2022-11-14T11:02:19;47.45;;;29.75;;
52396;SDS011;38322;53.108;6.308;2022-11-14T11:04:45;43.63;;;29.70;;
52396;SDS011;38322;53.108;6.308;2022-11-14T11:10:01;44.85;;;28.58;;
52396;SDS011;38322;53.108;6.308;2022-11-14T11:12:48;45.10;;;28.55;;
52396;SDS011;38322;53.108;6.308;2022-11-14T11:17:53;47.17;;;28.95;;
52396;SDS011;38322;53.108;6.308;2022-11-14T11:20:25;47.13;;;29.25;;
52396;SDS011;38322;53.108;6.308;2022-11-14T11:23:04;45.40;;;30.70;;
52396;SDS011;38322;53.108;6.308;2022-11-14T11:25:31;42.95;;;29.17;;
52396;SDS011;38322;53.108;6.308;2022-11-14T11:28:11;45.22;;;27.90;;
52396;SDS011;38322;53.108;6.308;2022-11-14T11:30:53;42.47;;;28.85;;
52396;SDS011;38322;53.108;6.308;2022-11-14T11:35:48;42.38;;;27.65;;
52396;SDS011;38322;53.108;6.308;2022-11-14T11:38:16;40.78;;;27.13;;
52396;SDS011;38322;53.108;6.308;2022-11-14T11:40:43;44.08;;;26.85;;
52396;SDS011;38322;53.108;6.308;2022-11-14T11:45:51;46.28;;;28.98;;
52396;SDS011;38322;53.108;6.308;2022-11-14T11:48:21;44.47;;;29.10;;
52396;SDS011;38322;53.108;6.308;2022-11-14T11:50:47;45.50;;;29.77;;
52396;SDS011;38322;53.108;6.308;2022-11-14T11:55:58;40.63;;;27.30;;
52396;SDS011;38322;53.108;6.308;2022-11-14T11:58:34;46.17;;;27.95;;
52396;SDS011;38322;53.108;6.308;2022-11-14T12:01:03;42.23;;;27.57;;
52396;SDS011;38322;53.108;6.308;2022-11-14T12:03:29;42.50;;;26.77;;
52396;SDS011;38322;53.108;6.308;2022-11-14T12:08:56;39.78;;;27.50;;
52396;SDS011;38322;53.108;6.308;2022-11-14T12:11:36;38.35;;;26.60;;
52396;SDS011;38322;53.108;6.308;2022-11-14T12:25:06;45.05;;;27.40;;
52396;SDS011;38322;53.108;6.308;2022-11-14T12:27:55;41.65;;;28.05;;
52396;SDS011;38322;53.108;6.308;2022-11-14T12:30:27;40.88;;;26.10;;
52396;SDS011;38322;53.108;6.308;2022-11-14T12:33:00;38.45;;;26.80;;
52396;SDS011;38322;53.108;6.308;2022-11-14T12:38:04;40.65;;;26.17;;
52396;SDS011;38322;53.108;6.308;2022-11-14T12:40:39;39.92;;;24.77;;
52396;SDS011;38322;53.108;6.308;2022-11-14T12:43:24;39.17;;;26.75;;
52396;SDS011;38322;53.108;6.308;2022-11-14T12:45:57;40.05;;;26.50;;
52396;SDS011;38322;53.108;6.308;2022-11-14T12:50:50;38.05;;;26.55;;
52396;SDS011;38322;53.108;6.308;2022-11-14T12:56:18;37.05;;;25.05;;
52396;SDS011;38322;53.108;6.308;2022-11-14T12:59:18;38.55;;;24.35;;
52396;SDS011;38322;53.108;6.308;2022-11-14T13:04:36;37.10;;;25.02;;
52396;SDS011;38322;53.108;6.308;2022-11-14T13:07:43;36.85;;;25.10;;
52396;SDS011;38322;53.108;6.308;2022-11-14T13:10:39;41.10;;;27.45;;
52396;SDS011;38322;53.108;6.308;2022-11-14T13:13:10;41.00;;;26.02;;
52396;SDS011;38322;53.108;6.308;2022-11-14T13:15:57;35.58;;;24.80;;
52396;SDS011;38322;53.108;6.308;2022-11-14T13:21:38;38.53;;;26.30;;
52396;SDS011;38322;53.108;6.308;2022-11-14T13:27:23;38.17;;;26.00;;
52396;SDS011;38322;53.108;6.308;2022-11-14T13:29:50;39.20;;;25.35;;
52396;SDS011;38322;53.108;6.308;2022-11-14T13:35:04;40.42;;;26.02;;
52396;SDS011;38322;53.108;6.308;2022-11-14T13:40:18;37.78;;;24.48;;
52396;SDS011;38322;53.108;6.308;2022-11-14T13:50:48;33.95;;;24.58;;
52396;SDS011;38322;53.108;6.308;2022-11-14T13:53:18;35.33;;;25.05;;
52396;SDS011;38322;53.108;6.308;2022-11-14T13:55:52;37.83;;;26.05;;
52396;SDS011;38322;53.108;6.308;2022-11-14T14:01:07;33.00;;;22.80;;
52396;SDS011;38322;53.108;6.308;2022-11-14T14:03:57;35.83;;;25.13;;
52396;SDS011;38322;53.108;6.308;2022-11-14T14:06:50;40.25;;;25.88;;
52396;SDS011;38322;53.108;6.308;2022-11-14T14:09:39;34.38;;;23.92;;
52396;SDS011;38322;53.108;6.308;2022-11-14T14:15:13;35.15;;;24.08;;
52396;SDS011;38322;53.108;6.308;2022-11-14T14:17:58;38.30;;;25.52;;
52396;SDS011;38322;53.108;6.308;2022-11-14T14:21:05;36.03;;;23.30;;
52396;SDS011;38322;53.108;6.308;2022-11-14T14:32:16;34.58;;;23.80;;
52396;SDS011;38322;53.108;6.308;2022-11-14T14:34:43;33.58;;;21.55;;
52396;SDS011;38322;53.108;6.308;2022-11-14T14:37:14;35.03;;;23.30;;
52396;SDS011;38322;53.108;6.308;2022-11-14T14:39:41;32.03;;;23.80;;
52396;SDS011;38322;53.108;6.308;2022-11-14T14:42:29;33.33;;;23.38;;
52396;SDS011;38322;53.108;6.308;2022-11-14T14:45:15;32.60;;;22.60;;
52396;SDS011;38322;53.108;6.308;2022-11-14T14:47:44;30.55;;;22.60;;
52396;SDS011;38322;53.108;6.308;2022-11-14T14:50:15;32.13;;;22.83;;
52396;SDS011;38322;53.108;6.308;2022-11-14T14:52:44;32.92;;;21.77;;
52396;SDS011;38322;53.108;6.308;2022-11-14T14:55:18;33.40;;;22.23;;
52396;SDS011;38322;53.108;6.308;2022-11-14T14:57:46;33.28;;;22.13;;
52396;SDS011;38322;53.108;6.308;2022-11-14T15:00:16;33.38;;;21.05;;
52396;SDS011;38322;53.108;6.308;2022-11-14T15:02:42;33.88;;;22.58;;
52396;SDS011;38322;53.108;6.308;2022-11-14T15:05:09;33.47;;;22.60;;
52396;SDS011;38322;53.108;6.308;2022-11-14T15:07:37;29.80;;;22.02;;
52396;SDS011;38322;53.108;6.308;2022-11-14T15:10:04;31.55;;;21.75;;
52396;SDS011;38322;53.108;6.308;2022-11-14T15:12:32;32.22;;;22.05;;
52396;SDS011;38322;53.108;6.308;2022-11-14T15:14:59;35.40;;;22.17;;
52396;SDS011;38322;53.108;6.308;2022-11-14T15:17:26;30.83;;;22.08;;
52396;SDS011;38322;53.108;6.308;2022-11-14T15:19:53;30.27;;;20.23;;
52396;SDS011;38322;53.108;6.308;2022-11-14T15:22:21;35.50;;;23.15;;
52396;SDS011;38322;53.108;6.308;2022-11-14T15:27:47;34.60;;;21.52;;
52396;SDS011;38322;53.108;6.308;2022-11-14T15:30:24;33.50;;;22.83;;
52396;SDS011;38322;53.108;6.308;2022-11-14T15:32:53;30.15;;;21.75;;
52396;SDS011;38322;53.108;6.308;2022-11-14T15:38:16;31.10;;;22.45;;
52396;SDS011;38322;53.108;6.308;2022-11-14T15:41:08;31.45;;;20.30;;
52396;SDS011;38322;53.108;6.308;2022-11-14T15:48:57;28.13;;;18.50;;
52396;SDS011;38322;53.108;6.308;2022-11-14T15:51:37;26.77;;;19.30;;
52396;SDS011;38322;53.108;6.308;2022-11-14T15:54:17;30.52;;;19.33;;
52396;SDS011;38322;53.108;6.308;2022-11-14T15:56:45;27.05;;;18.75;;
52396;SDS011;38322;53.108;6.308;2022-11-14T15:59:11;30.35;;;20.08;;
52396;SDS011;38322;53.108;6.308;2022-11-14T16:01:37;24.33;;;16.77;;
52396;SDS011;38322;53.108;6.308;2022-11-14T16:04:03;25.15;;;17.45;;
52396;SDS011;38322;53.108;6.308;2022-11-14T16:06:29;24.33;;;16.67;;
52396;SDS011;38322;53.108;6.308;2022-11-14T16:08:57;23.88;;;17.17;;
52396;SDS011;38322;53.108;6.308;2022-11-14T16:11:22;22.25;;;16.02;;
52396;SDS011;38322;53.108;6.308;2022-11-14T16:13:48;22.50;;;15.15;;
52396;SDS011;38322;53.108;6.308;2022-11-14T16:16:15;22.13;;;15.43;;
52396;SDS011;38322;53.108;6.308;2022-11-14T16:18:41;18.63;;;14.38;;
52396;SDS011;38322;53.108;6.308;2022-11-14T16:21:09;18.67;;;13.65;;
52396;SDS011;38322;53.108;6.308;2022-11-14T16:23:38;17.40;;;14.25;;
52396;SDS011;38322;53.108;6.308;2022-11-14T16:26:04;22.70;;;15.48;;
52396;SDS011;38322;53.108;6.308;2022-11-14T16:28:30;20.30;;;14.35;;
52396;SDS011;38322;53.108;6.308;2022-11-14T16:30:56;17.60;;;13.52;;
52396;SDS011;38322;53.108;6.308;2022-11-14T16:33:22;22.60;;;14.48;;
52396;SDS011;38322;53.108;6.308;2022-11-14T16:35:48;20.67;;;13.05;;
52396;SDS011;38322;53.108;6.308;2022-11-14T16:38:14;20.08;;;14.90;;
52396;SDS011;38322;53.108;6.308;2022-11-14T16:40:42;19.52;;;14.15;;
52396;SDS011;38322;53.108;6.308;2022-11-14T16:43:10;18.55;;;12.65;;
52396;SDS011;38322;53.108;6.308;2022-11-14T16:45:38;19.23;;;15.18;;
52396;SDS011;38322;53.108;6.308;2022-11-14T16:48:05;17.40;;;13.32;;
52396;SDS011;38322;53.108;6.308;2022-11-14T16:50:31;19.67;;;14.07;;
52396;SDS011;38322;53.108;6.308;2022-11-14T16:52:57;22.08;;;14.52;;
52396;SDS011;38322;53.108;6.308;2022-11-14T16:55:22;16.20;;;13.43;;
52396;SDS011;38322;53.108;6.308;2022-11-14T16:57:48;18.83;;;13.75;;
52396;SDS011;38322;53.108;6.308;2022-11-14T17:00:14;18.98;;;13.48;;
52396;SDS011;38322;53.108;6.308;2022-11-14T17:02:40;19.77;;;15.35;;
52396;SDS011;38322;53.108;6.308;2022-11-14T17:05:07;20.60;;;13.70;;
52396;SDS011;38322;53.108;6.308;2022-11-14T17:07:33;20.17;;;14.05;;
52396;SDS011;38322;53.108;6.308;2022-11-14T17:09:59;17.55;;;14.32;;
52396;SDS011;38322;53.108;6.308;2022-11-14T17:12:25;20.67;;;14.38;;
52396;SDS011;38322;53.108;6.308;2022-11-14T17:14:51;20.40;;;14.88;;
52396;SDS011;38322;53.108;6.308;2022-11-14T17:17:18;20.33;;;14.07;;
52396;SDS011;38322;53.108;6.308;2022-11-14T17:19:44;19.48;;;14.13;;
52396;SDS011;38322;53.108;6.308;2022-11-14T17:22:11;22.45;;;15.55;;
52396;SDS011;38322;53.108;6.308;2022-11-14T17:24:37;16.52;;;13.15;;
52396;SDS011;38322;53.108;6.308;2022-11-14T17:27:03;25.40;;;17.13;;
52396;SDS011;38322;53.108;6.308;2022-11-14T17:29:29;21.30;;;14.98;;
52396;SDS011;38322;53.108;6.308;2022-11-14T17:31:55;20.65;;;15.45;;
52396;SDS011;38322;53.108;6.308;2022-11-14T17:34:21;22.48;;;15.90;;
52396;SDS011;38322;53.108;6.308;2022-11-14T17:36:47;21.00;;;16.02;;
52396;SDS011;38322;53.108;6.308;2022-11-14T17:39:13;25.88;;;17.77;;
52396;SDS011;38322;53.108;6.308;2022-11-14T17:41:39;22.23;;;16.23;;
52396;SDS011;38322;53.108;6.308;2022-11-14T17:44:05;27.17;;;17.75;;
52396;SDS011;38322;53.108;6.308;2022-11-14T17:46:31;22.60;;;15.82;;
52396;SDS011;38322;53.108;6.308;2022-11-14T17:48:57;22.52;;;17.13;;
52396;SDS011;38322;53.108;6.308;2022-11-14T17:51:23;26.25;;;19.13;;
52396;SDS011;38322;53.108;6.308;2022-11-14T17:53:50;25.23;;;17.17;;
52396;SDS011;38322;53.108;6.308;2022-11-14T17:56:17;23.35;;;17.05;;
52396;SDS011;38322;53.108;6.308;2022-11-14T17:58:45;25.10;;;18.27;;
52396;SDS011;38322;53.108;6.308;2022-11-14T18:01:14;23.25;;;17.63;;
52396;SDS011;38322;53.108;6.308;2022-11-14T18:03:41;23.95;;;18.25;;
52396;SDS011;38322;53.108;6.308;2022-11-14T18:06:08;24.80;;;18.63;;
52396;SDS011;38322;53.108;6.308;2022-11-14T18:08:35;24.90;;;17.52;;
52396;SDS011;38322;53.108;6.308;2022-11-14T18:11:03;26.27;;;18.00;;
52396;SDS011;38322;53.108;6.308;2022-11-14T18:13:31;23.98;;;17.17;;
52396;SDS011;38322;53.108;6.308;2022-11-14T18:15:59;28.15;;;19.58;;
52396;SDS011;38322;53.108;6.308;2022-11-14T18:18:26;26.02;;;16.90;;
52396;SDS011;38322;53.108;6.308;2022-11-14T18:20:53;27.15;;;18.73;;
52396;SDS011;38322;53.108;6.308;2022-11-14T18:23:19;25.60;;;19.00;;
52396;SDS011;38322;53.108;6.308;2022-11-14T18:25:45;26.38;;;18.50;;
52396;SDS011;38322;53.108;6.308;2022-11-14T18:28:11;29.38;;;19.63;;
52396;SDS011;38322;53.108;6.308;2022-11-14T18:30:36;38.75;;;24.10;;
52396;SDS011;38322;53.108;6.308;2022-11-14T18:33:02;46.33;;;27.55;;
52396;SDS011;38322;53.108;6.308;2022-11-14T18:35:28;30.35;;;21.15;;
52396;SDS011;38322;53.108;6.308;2022-11-14T18:37:54;34.70;;;23.40;;
52396;SDS011;38322;53.108;6.308;2022-11-14T18:40:22;31.10;;;21.20;;
52396;SDS011;38322;53.108;6.308;2022-11-14T18:42:48;32.83;;;20.60;;
52396;SDS011;38322;53.108;6.308;2022-11-14T18:45:14;27.33;;;19.35;;
52396;SDS011;38322;53.108;6.308;2022-11-14T18:47:40;28.02;;;21.77;;
52396;SDS011;38322;53.108;6.308;2022-11-14T18:50:06;28.42;;;19.70;;
52396;SDS011;38322;53.108;6.308;2022-11-14T18:52:32;28.73;;;19.77;;
52396;SDS011;38322;53.108;6.308;2022-11-14T18:54:58;32.67;;;22.40;;
52396;SDS011;38322;53.108;6.308;2022-11-14T18:57:24;33.08;;;22.75;;
52396;SDS011;38322;53.108;6.308;2022-11-14T18:59:49;32.85;;;21.63;;
52396;SDS011;38322;53.108;6.308;2022-11-14T19:02:15;34.42;;;20.05;;
52396;SDS011;38322;53.108;6.308;2022-11-14T19:04:41;29.15;;;21.20;;
52396;SDS011;38322;53.108;6.308;2022-11-14T19:07:07;33.97;;;23.67;;
52396;SDS011;38322;53.108;6.308;2022-11-14T19:09:34;34.33;;;22.30;;
52396;SDS011;38322;53.108;6.308;2022-11-14T19:12:00;32.97;;;21.65;;
52396;SDS011;38322;53.108;6.308;2022-11-14T19:14:44;31.45;;;22.25;;
52396;SDS011;38322;53.108;6.308;2022-11-14T19:17:10;35.72;;;24.13;;
52396;SDS011;38322;53.108;6.308;2022-11-14T19:19:36;34.20;;;22.63;;
52396;SDS011;38322;53.108;6.308;2022-11-14T19:22:03;33.53;;;23.58;;
52396;SDS011;38322;53.108;6.308;2022-11-14T19:24:28;36.00;;;21.60;;
52396;SDS011;38322;53.108;6.308;2022-11-14T19:26:54;35.67;;;22.70;;
52396;SDS011;38322;53.108;6.308;2022-11-14T19:29:21;29.98;;;22.23;;
52396;SDS011;38322;53.108;6.308;2022-11-14T19:31:47;28.38;;;20.95;;
52396;SDS011;38322;53.108;6.308;2022-11-14T19:34:13;32.72;;;22.27;;
52396;SDS011;38322;53.108;6.308;2022-11-14T19:36:39;33.42;;;22.48;;
52396;SDS011;38322;53.108;6.308;2022-11-14T19:39:05;29.15;;;21.52;;
52396;SDS011;38322;53.108;6.308;2022-11-14T19:41:31;30.42;;;22.23;;
52396;SDS011;38322;53.108;6.308;2022-11-14T19:43:57;35.55;;;24.10;;
52396;SDS011;38322;53.108;6.308;2022-11-14T19:46:25;29.02;;;21.27;;
52396;SDS011;38322;53.108;6.308;2022-11-14T19:48:58;29.42;;;19.45;;
52396;SDS011;38322;53.108;6.308;2022-11-14T19:51:24;30.73;;;21.63;;
52396;SDS011;38322;53.108;6.308;2022-11-14T19:53:51;31.48;;;22.65;;
52396;SDS011;38322;53.108;6.308;2022-11-14T19:56:18;31.45;;;21.88;;
52396;SDS011;38322;53.108;6.308;2022-11-14T19:58:46;32.03;;;22.50;;
52396;SDS011;38322;53.108;6.308;2022-11-14T20:01:13;34.95;;;23.85;;
52396;SDS011;38322;53.108;6.308;2022-11-14T20:03:41;35.85;;;24.15;;
52396;SDS011;38322;53.108;6.308;2022-11-14T20:06:12;30.30;;;22.27;;
52396;SDS011;38322;53.108;6.308;2022-11-14T20:08:39;34.80;;;22.48;;
52396;SDS011;38322;53.108;6.308;2022-11-14T20:11:05;34.28;;;22.98;;
52396;SDS011;38322;53.108;6.308;2022-11-14T20:13:32;32.22;;;23.45;;
52396;SDS011;38322;53.108;6.308;2022-11-14T20:15:59;36.10;;;23.33;;
52396;SDS011;38322;53.108;6.308;2022-11-14T20:18:31;35.40;;;22.70;;
52396;SDS011;38322;53.108;6.308;2022-11-14T20:21:01;36.45;;;22.17;;
52396;SDS011;38322;53.108;6.308;2022-11-14T20:23:29;32.65;;;24.88;;
52396;SDS011;38322;53.108;6.308;2022-11-14T20:25:55;34.20;;;24.70;;
52396;SDS011;38322;53.108;6.308;2022-11-14T20:28:21;32.10;;;21.40;;
52396;SDS011;38322;53.108;6.308;2022-11-14T20:30:47;34.42;;;23.20;;
52396;SDS011;38322;53.108;6.308;2022-11-14T20:33:13;32.42;;;22.48;;
52396;SDS011;38322;53.108;6.308;2022-11-14T20:35:39;35.83;;;22.65;;
52396;SDS011;38322;53.108;6.308;2022-11-14T20:38:05;30.83;;;21.92;;
52396;SDS011;38322;53.108;6.308;2022-11-14T20:40:32;36.53;;;22.90;;
52396;SDS011;38322;53.108;6.308;2022-11-14T20:42:58;34.10;;;23.90;;
52396;SDS011;38322;53.108;6.308;2022-11-14T20:45:25;36.97;;;23.85;;
52396;SDS011;38322;53.108;6.308;2022-11-14T20:47:52;30.33;;;21.40;;
52396;SDS011;38322;53.108;6.308;2022-11-14T20:50:18;40.95;;;24.48;;
52396;SDS011;38322;53.108;6.308;2022-11-14T20:52:44;31.98;;;23.80;;
52396;SDS011;38322;53.108;6.308;2022-11-14T20:55:11;37.05;;;28.73;;
52396;SDS011;38322;53.108;6.308;2022-11-14T20:57:37;51.65;;;38.55;;
52396;SDS011;38322;53.108;6.308;2022-11-14T21:00:04;43.20;;;30.75;;
